sensor_id;sensor_type;location;lat;lon;timestamp;P1;durP1;ratioP1;P2;durP2;ratioP2
46439;SDS011;32138;50.966;6.968;2023-08-08T00:01:28;4.57;;;1.65;;
46439;SDS011;32138;50.966;6.968;2023-08-08T00:02:58;3.85;;;1.83;;
46439;SDS011;32138;50.966;6.968;2023-08-08T00:04:29;5.88;;;1.85;;
46439;SDS011;32138;50.966;6.968;2023-08-08T00:06:00;3.20;;;1.40;;
46439;SDS011;32138;50.966;6.968;2023-08-08T00:07:31;2.67;;;1.50;;
46439;SDS011;32138;50.966;6.968;2023-08-08T00:09:02;4.25;;;1.77;;
46439;SDS011;32138;50.966;6.968;2023-08-08T00:10:33;2.53;;;1.48;;
46439;SDS011;32138;50.966;6.968;2023-08-08T00:12:04;4.88;;;2.03;;
46439;SDS011;32138;50.966;6.968;2023-08-08T00:13:35;7.95;;;1.52;;
46439;SDS011;32138;50.966;6.968;2023-08-08T00:15:06;3.80;;;1.90;;
46439;SDS011;32138;50.966;6.968;2023-08-08T00:16:38;6.18;;;2.25;;
46439;SDS011;32138;50.966;6.968;2023-08-08T00:18:09;5.07;;;2.00;;
46439;SDS011;32138;50.966;6.968;2023-08-08T00:19:40;6.40;;;2.00;;
46439;SDS011;32138;50.966;6.968;2023-08-08T00:21:11;3.60;;;1.85;;
46439;SDS011;32138;50.966;6.968;2023-08-08T00:22:41;2.70;;;1.60;;
46439;SDS011;32138;50.966;6.968;2023-08-08T00:24:12;4.22;;;1.65;;
46439;SDS011;32138;50.966;6.968;2023-08-08T00:25:43;5.13;;;1.92;;
46439;SDS011;32138;50.966;6.968;2023-08-08T00:27:13;3.33;;;1.70;;
46439;SDS011;32138;50.966;6.968;2023-08-08T00:28:44;6.03;;;1.60;;
46439;SDS011;32138;50.966;6.968;2023-08-08T00:30:15;4.85;;;1.38;;
46439;SDS011;32138;50.966;6.968;2023-08-08T00:31:46;4.97;;;1.92;;
46439;SDS011;32138;50.966;6.968;2023-08-08T00:33:17;4.38;;;1.92;;
46439;SDS011;32138;50.966;6.968;2023-08-08T00:34:48;6.75;;;2.45;;
46439;SDS011;32138;50.966;6.968;2023-08-08T00:36:18;5.22;;;1.90;;
46439;SDS011;32138;50.966;6.968;2023-08-08T00:37:49;5.07;;;1.75;;
46439;SDS011;32138;50.966;6.968;2023-08-08T00:39:20;3.22;;;1.73;;
46439;SDS011;32138;50.966;6.968;2023-08-08T00:40:50;6.68;;;2.17;;
46439;SDS011;32138;50.966;6.968;2023-08-08T00:42:21;4.30;;;1.63;;
46439;SDS011;32138;50.966;6.968;2023-08-08T00:43:52;5.78;;;1.90;;
46439;SDS011;32138;50.966;6.968;2023-08-08T00:45:23;4.20;;;1.65;;
46439;SDS011;32138;50.966;6.968;2023-08-08T00:46:54;5.65;;;2.30;;
46439;SDS011;32138;50.966;6.968;2023-08-08T00:48:25;3.53;;;1.73;;
46439;SDS011;32138;50.966;6.968;2023-08-08T00:49:56;6.60;;;2.47;;
46439;SDS011;32138;50.966;6.968;2023-08-08T00:51:27;3.35;;;2.40;;
46439;SDS011;32138;50.966;6.968;2023-08-08T00:52:58;8.25;;;2.20;;
46439;SDS011;32138;50.966;6.968;2023-08-08T00:54:28;4.75;;;2.10;;
46439;SDS011;32138;50.966;6.968;2023-08-08T00:56:00;3.33;;;1.92;;
46439;SDS011;32138;50.966;6.968;2023-08-08T00:57:31;2.70;;;1.77;;
46439;SDS011;32138;50.966;6.968;2023-08-08T00:59:02;4.57;;;1.90;;
46439;SDS011;32138;50.966;6.968;2023-08-08T01:00:33;3.50;;;2.10;;
46439;SDS011;32138;50.966;6.968;2023-08-08T01:02:04;3.88;;;1.83;;
46439;SDS011;32138;50.966;6.968;2023-08-08T01:03:35;4.57;;;1.50;;
46439;SDS011;32138;50.966;6.968;2023-08-08T01:05:06;3.45;;;1.73;;
46439;SDS011;32138;50.966;6.968;2023-08-08T01:06:42;2.95;;;2.13;;
46439;SDS011;32138;50.966;6.968;2023-08-08T01:08:24;4.30;;;1.73;;
46439;SDS011;32138;50.966;6.968;2023-08-08T01:10:04;2.60;;;1.52;;
46439;SDS011;32138;50.966;6.968;2023-08-08T01:11:39;3.20;;;1.65;;
46439;SDS011;32138;50.966;6.968;2023-08-08T01:13:18;6.57;;;2.33;;
46439;SDS011;32138;50.966;6.968;2023-08-08T01:14:53;5.40;;;2.38;;
46439;SDS011;32138;50.966;6.968;2023-08-08T01:16:25;3.60;;;1.90;;
46439;SDS011;32138;50.966;6.968;2023-08-08T01:17:56;4.22;;;2.33;;
46439;SDS011;32138;50.966;6.968;2023-08-08T01:19:28;5.43;;;1.90;;
46439;SDS011;32138;50.966;6.968;2023-08-08T01:21:01;3.03;;;1.77;;
46439;SDS011;32138;50.966;6.968;2023-08-08T01:22:36;3.80;;;1.92;;
46439;SDS011;32138;50.966;6.968;2023-08-08T01:24:19;3.70;;;1.75;;
46439;SDS011;32138;50.966;6.968;2023-08-08T01:25:59;3.90;;;1.67;;
46439;SDS011;32138;50.966;6.968;2023-08-08T01:27:30;5.32;;;1.77;;
46439;SDS011;32138;50.966;6.968;2023-08-08T01:29:01;6.22;;;2.13;;
46439;SDS011;32138;50.966;6.968;2023-08-08T01:30:32;3.00;;;1.75;;
46439;SDS011;32138;50.966;6.968;2023-08-08T01:32:03;3.40;;;1.65;;
46439;SDS011;32138;50.966;6.968;2023-08-08T01:33:34;4.80;;;1.95;;
46439;SDS011;32138;50.966;6.968;2023-08-08T01:35:05;3.45;;;1.65;;
46439;SDS011;32138;50.966;6.968;2023-08-08T01:36:42;4.70;;;1.63;;
46439;SDS011;32138;50.966;6.968;2023-08-08T01:38:26;3.38;;;1.88;;
46439;SDS011;32138;50.966;6.968;2023-08-08T01:40:04;3.78;;;2.03;;
46439;SDS011;32138;50.966;6.968;2023-08-08T01:41:36;5.22;;;2.10;;
46439;SDS011;32138;50.966;6.968;2023-08-08T01:43:09;5.75;;;2.50;;
46439;SDS011;32138;50.966;6.968;2023-08-08T01:44:41;8.07;;;3.25;;
46439;SDS011;32138;50.966;6.968;2023-08-08T01:46:12;5.90;;;2.17;;
46439;SDS011;32138;50.966;6.968;2023-08-08T01:47:49;3.67;;;1.83;;
46439;SDS011;32138;50.966;6.968;2023-08-08T01:49:20;4.55;;;1.88;;
46439;SDS011;32138;50.966;6.968;2023-08-08T01:50:51;6.40;;;2.00;;
46439;SDS011;32138;50.966;6.968;2023-08-08T01:52:22;4.55;;;2.10;;
46439;SDS011;32138;50.966;6.968;2023-08-08T01:53:53;2.65;;;1.58;;
46439;SDS011;32138;50.966;6.968;2023-08-08T01:55:23;3.58;;;2.30;;
46439;SDS011;32138;50.966;6.968;2023-08-08T01:56:54;3.20;;;1.63;;
46439;SDS011;32138;50.966;6.968;2023-08-08T01:58:25;5.80;;;2.47;;
46439;SDS011;32138;50.966;6.968;2023-08-08T01:59:56;3.08;;;2.00;;
46439;SDS011;32138;50.966;6.968;2023-08-08T02:01:26;5.10;;;1.83;;
46439;SDS011;32138;50.966;6.968;2023-08-08T02:02:57;5.05;;;1.83;;
46439;SDS011;32138;50.966;6.968;2023-08-08T02:04:28;3.20;;;1.98;;
46439;SDS011;32138;50.966;6.968;2023-08-08T02:05:59;3.72;;;1.70;;
46439;SDS011;32138;50.966;6.968;2023-08-08T02:07:29;5.28;;;2.50;;
46439;SDS011;32138;50.966;6.968;2023-08-08T02:09:00;3.78;;;2.20;;
46439;SDS011;32138;50.966;6.968;2023-08-08T02:10:31;4.60;;;1.80;;
46439;SDS011;32138;50.966;6.968;2023-08-08T02:12:02;8.00;;;2.65;;
46439;SDS011;32138;50.966;6.968;2023-08-08T02:13:33;6.03;;;1.80;;
46439;SDS011;32138;50.966;6.968;2023-08-08T02:15:04;4.55;;;2.30;;
46439;SDS011;32138;50.966;6.968;2023-08-08T02:16:35;4.47;;;2.05;;
46439;SDS011;32138;50.966;6.968;2023-08-08T02:18:06;3.75;;;1.73;;
46439;SDS011;32138;50.966;6.968;2023-08-08T02:19:38;6.45;;;2.13;;
46439;SDS011;32138;50.966;6.968;2023-08-08T02:21:09;7.65;;;2.58;;
46439;SDS011;32138;50.966;6.968;2023-08-08T02:22:40;6.63;;;2.40;;
46439;SDS011;32138;50.966;6.968;2023-08-08T02:24:11;6.65;;;2.10;;
46439;SDS011;32138;50.966;6.968;2023-08-08T02:25:42;5.05;;;1.85;;
46439;SDS011;32138;50.966;6.968;2023-08-08T02:27:12;6.93;;;2.13;;
46439;SDS011;32138;50.966;6.968;2023-08-08T02:28:44;4.22;;;1.88;;
46439;SDS011;32138;50.966;6.968;2023-08-08T02:30:15;6.30;;;2.20;;
46439;SDS011;32138;50.966;6.968;2023-08-08T02:31:45;4.68;;;2.30;;
46439;SDS011;32138;50.966;6.968;2023-08-08T02:33:16;5.38;;;2.30;;
46439;SDS011;32138;50.966;6.968;2023-08-08T02:34:47;4.43;;;1.63;;
46439;SDS011;32138;50.966;6.968;2023-08-08T02:36:18;5.10;;;1.90;;
46439;SDS011;32138;50.966;6.968;2023-08-08T02:37:49;4.88;;;2.10;;
46439;SDS011;32138;50.966;6.968;2023-08-08T02:39:19;6.05;;;2.15;;
46439;SDS011;32138;50.966;6.968;2023-08-08T02:40:50;5.78;;;2.10;;
46439;SDS011;32138;50.966;6.968;2023-08-08T02:42:21;6.28;;;1.95;;
46439;SDS011;32138;50.966;6.968;2023-08-08T02:43:52;5.20;;;1.95;;
46439;SDS011;32138;50.966;6.968;2023-08-08T02:45:22;2.90;;;1.95;;
46439;SDS011;32138;50.966;6.968;2023-08-08T02:46:53;6.22;;;2.42;;
46439;SDS011;32138;50.966;6.968;2023-08-08T02:48:24;6.40;;;2.00;;
46439;SDS011;32138;50.966;6.968;2023-08-08T02:49:55;6.35;;;1.55;;
46439;SDS011;32138;50.966;6.968;2023-08-08T02:51:25;7.05;;;2.10;;
46439;SDS011;32138;50.966;6.968;2023-08-08T02:52:56;5.68;;;1.88;;
46439;SDS011;32138;50.966;6.968;2023-08-08T02:54:27;5.50;;;2.00;;
46439;SDS011;32138;50.966;6.968;2023-08-08T02:55:58;10.15;;;1.75;;
46439;SDS011;32138;50.966;6.968;2023-08-08T02:57:28;4.45;;;2.17;;
46439;SDS011;32138;50.966;6.968;2023-08-08T02:58:59;3.50;;;1.83;;
46439;SDS011;32138;50.966;6.968;2023-08-08T03:00:30;5.03;;;1.83;;
46439;SDS011;32138;50.966;6.968;2023-08-08T03:02:00;4.82;;;1.70;;
46439;SDS011;32138;50.966;6.968;2023-08-08T03:03:31;7.95;;;2.00;;
46439;SDS011;32138;50.966;6.968;2023-08-08T03:05:02;5.32;;;2.15;;
46439;SDS011;32138;50.966;6.968;2023-08-08T03:06:34;3.25;;;1.48;;
46439;SDS011;32138;50.966;6.968;2023-08-08T03:08:05;5.75;;;2.00;;
46439;SDS011;32138;50.966;6.968;2023-08-08T03:09:36;6.35;;;2.40;;
46439;SDS011;32138;50.966;6.968;2023-08-08T03:11:06;2.78;;;1.65;;
46439;SDS011;32138;50.966;6.968;2023-08-08T03:12:37;4.35;;;1.80;;
46439;SDS011;32138;50.966;6.968;2023-08-08T03:14:08;5.57;;;2.42;;
46439;SDS011;32138;50.966;6.968;2023-08-08T03:15:39;3.83;;;1.92;;
46439;SDS011;32138;50.966;6.968;2023-08-08T03:17:09;3.45;;;1.70;;
46439;SDS011;32138;50.966;6.968;2023-08-08T03:18:40;5.40;;;1.77;;
46439;SDS011;32138;50.966;6.968;2023-08-08T03:20:11;5.07;;;1.85;;
46439;SDS011;32138;50.966;6.968;2023-08-08T03:21:42;3.95;;;1.83;;
46439;SDS011;32138;50.966;6.968;2023-08-08T03:23:13;5.20;;;1.88;;
46439;SDS011;32138;50.966;6.968;2023-08-08T03:24:44;4.43;;;1.95;;
46439;SDS011;32138;50.966;6.968;2023-08-08T03:26:14;6.22;;;2.05;;
46439;SDS011;32138;50.966;6.968;2023-08-08T03:27:45;5.28;;;2.13;;
46439;SDS011;32138;50.966;6.968;2023-08-08T03:29:16;8.93;;;2.22;;
46439;SDS011;32138;50.966;6.968;2023-08-08T03:30:47;7.32;;;1.90;;
46439;SDS011;32138;50.966;6.968;2023-08-08T03:32:17;4.70;;;1.60;;
46439;SDS011;32138;50.966;6.968;2023-08-08T03:33:48;6.47;;;1.67;;
46439;SDS011;32138;50.966;6.968;2023-08-08T03:35:19;6.10;;;2.10;;
46439;SDS011;32138;50.966;6.968;2023-08-08T03:36:49;4.25;;;2.22;;
46439;SDS011;32138;50.966;6.968;2023-08-08T03:38:20;6.10;;;2.00;;
46439;SDS011;32138;50.966;6.968;2023-08-08T03:39:51;7.70;;;1.52;;
46439;SDS011;32138;50.966;6.968;2023-08-08T03:41:22;9.85;;;2.28;;
46439;SDS011;32138;50.966;6.968;2023-08-08T03:42:53;5.30;;;2.00;;
46439;SDS011;32138;50.966;6.968;2023-08-08T03:44:24;8.75;;;2.53;;
46439;SDS011;32138;50.966;6.968;2023-08-08T03:45:54;8.23;;;2.05;;
46439;SDS011;32138;50.966;6.968;2023-08-08T03:47:25;6.40;;;1.70;;
46439;SDS011;32138;50.966;6.968;2023-08-08T03:48:56;6.07;;;1.65;;
46439;SDS011;32138;50.966;6.968;2023-08-08T03:50:27;6.20;;;1.80;;
46439;SDS011;32138;50.966;6.968;2023-08-08T03:51:57;6.53;;;1.90;;
46439;SDS011;32138;50.966;6.968;2023-08-08T03:53:28;8.60;;;2.17;;
46439;SDS011;32138;50.966;6.968;2023-08-08T03:54:59;4.82;;;2.00;;
46439;SDS011;32138;50.966;6.968;2023-08-08T03:56:30;4.63;;;1.92;;
46439;SDS011;32138;50.966;6.968;2023-08-08T03:58:01;9.82;;;1.80;;
46439;SDS011;32138;50.966;6.968;2023-08-08T03:59:31;4.65;;;1.95;;
46439;SDS011;32138;50.966;6.968;2023-08-08T04:01:02;4.93;;;1.73;;
46439;SDS011;32138;50.966;6.968;2023-08-08T04:02:33;7.55;;;2.00;;
46439;SDS011;32138;50.966;6.968;2023-08-08T04:04:04;4.38;;;2.10;;
46439;SDS011;32138;50.966;6.968;2023-08-08T04:05:35;8.52;;;1.80;;
46439;SDS011;32138;50.966;6.968;2023-08-08T04:07:06;3.97;;;1.60;;
46439;SDS011;32138;50.966;6.968;2023-08-08T04:08:36;4.75;;;1.92;;
46439;SDS011;32138;50.966;6.968;2023-08-08T04:10:07;4.40;;;2.05;;
46439;SDS011;32138;50.966;6.968;2023-08-08T04:11:38;7.22;;;1.88;;
46439;SDS011;32138;50.966;6.968;2023-08-08T04:13:09;10.20;;;2.10;;
46439;SDS011;32138;50.966;6.968;2023-08-08T04:14:40;6.43;;;2.05;;
46439;SDS011;32138;50.966;6.968;2023-08-08T04:16:11;5.72;;;1.90;;
46439;SDS011;32138;50.966;6.968;2023-08-08T04:17:42;6.53;;;2.63;;
46439;SDS011;32138;50.966;6.968;2023-08-08T04:19:13;8.32;;;2.13;;
46439;SDS011;32138;50.966;6.968;2023-08-08T04:20:45;5.63;;;1.52;;
46439;SDS011;32138;50.966;6.968;2023-08-08T04:22:17;6.72;;;2.38;;
46439;SDS011;32138;50.966;6.968;2023-08-08T04:23:47;6.15;;;1.95;;
46439;SDS011;32138;50.966;6.968;2023-08-08T04:25:18;5.80;;;1.60;;
46439;SDS011;32138;50.966;6.968;2023-08-08T04:26:51;10.50;;;1.90;;
46439;SDS011;32138;50.966;6.968;2023-08-08T04:28:22;4.63;;;1.95;;
46439;SDS011;32138;50.966;6.968;2023-08-08T04:29:53;8.10;;;2.38;;
46439;SDS011;32138;50.966;6.968;2023-08-08T04:31:23;6.97;;;2.35;;
46439;SDS011;32138;50.966;6.968;2023-08-08T04:32:55;5.00;;;1.88;;
46439;SDS011;32138;50.966;6.968;2023-08-08T04:34:26;7.07;;;2.15;;
46439;SDS011;32138;50.966;6.968;2023-08-08T04:35:57;7.18;;;2.53;;
46439;SDS011;32138;50.966;6.968;2023-08-08T04:37:28;5.95;;;2.22;;
46439;SDS011;32138;50.966;6.968;2023-08-08T04:39:00;3.90;;;1.90;;
46439;SDS011;32138;50.966;6.968;2023-08-08T04:40:31;6.50;;;1.98;;
46439;SDS011;32138;50.966;6.968;2023-08-08T04:42:02;5.43;;;2.53;;
46439;SDS011;32138;50.966;6.968;2023-08-08T04:43:33;5.22;;;2.03;;
46439;SDS011;32138;50.966;6.968;2023-08-08T04:45:04;8.48;;;2.60;;
46439;SDS011;32138;50.966;6.968;2023-08-08T04:46:35;5.97;;;1.90;;
46439;SDS011;32138;50.966;6.968;2023-08-08T04:48:06;9.38;;;2.92;;
46439;SDS011;32138;50.966;6.968;2023-08-08T04:49:37;8.65;;;2.40;;
46439;SDS011;32138;50.966;6.968;2023-08-08T04:51:08;6.07;;;2.20;;
46439;SDS011;32138;50.966;6.968;2023-08-08T04:52:39;5.55;;;3.10;;
46439;SDS011;32138;50.966;6.968;2023-08-08T04:54:09;5.97;;;2.15;;
46439;SDS011;32138;50.966;6.968;2023-08-08T04:55:40;6.32;;;2.70;;
46439;SDS011;32138;50.966;6.968;2023-08-08T04:57:11;7.10;;;2.53;;
46439;SDS011;32138;50.966;6.968;2023-08-08T04:58:41;10.85;;;2.95;;
46439;SDS011;32138;50.966;6.968;2023-08-08T05:00:13;5.97;;;2.58;;
46439;SDS011;32138;50.966;6.968;2023-08-08T05:01:44;11.95;;;2.40;;
46439;SDS011;32138;50.966;6.968;2023-08-08T05:03:15;8.68;;;2.45;;
46439;SDS011;32138;50.966;6.968;2023-08-08T05:04:46;8.02;;;3.38;;
46439;SDS011;32138;50.966;6.968;2023-08-08T05:06:16;5.13;;;2.60;;
46439;SDS011;32138;50.966;6.968;2023-08-08T05:07:47;7.82;;;3.03;;
46439;SDS011;32138;50.966;6.968;2023-08-08T05:09:18;5.40;;;3.10;;
46439;SDS011;32138;50.966;6.968;2023-08-08T05:10:50;8.55;;;3.08;;
46439;SDS011;32138;50.966;6.968;2023-08-08T05:12:21;15.35;;;3.92;;
46439;SDS011;32138;50.966;6.968;2023-08-08T05:13:52;7.30;;;2.83;;
46439;SDS011;32138;50.966;6.968;2023-08-08T05:15:22;9.32;;;3.20;;
46439;SDS011;32138;50.966;6.968;2023-08-08T05:16:53;8.52;;;3.40;;
46439;SDS011;32138;50.966;6.968;2023-08-08T05:18:24;10.00;;;3.20;;
46439;SDS011;32138;50.966;6.968;2023-08-08T05:19:54;9.77;;;3.45;;
46439;SDS011;32138;50.966;6.968;2023-08-08T05:21:25;11.30;;;3.40;;
46439;SDS011;32138;50.966;6.968;2023-08-08T05:22:56;10.30;;;3.85;;
46439;SDS011;32138;50.966;6.968;2023-08-08T05:24:27;7.20;;;3.25;;
46439;SDS011;32138;50.966;6.968;2023-08-08T05:25:57;12.18;;;3.00;;
46439;SDS011;32138;50.966;6.968;2023-08-08T05:27:28;9.30;;;3.78;;
46439;SDS011;32138;50.966;6.968;2023-08-08T05:28:59;12.18;;;3.67;;
46439;SDS011;32138;50.966;6.968;2023-08-08T05:30:30;11.93;;;3.30;;
46439;SDS011;32138;50.966;6.968;2023-08-08T05:32:00;9.70;;;3.35;;
46439;SDS011;32138;50.966;6.968;2023-08-08T05:33:31;9.80;;;3.42;;
46439;SDS011;32138;50.966;6.968;2023-08-08T05:35:03;10.48;;;4.07;;
46439;SDS011;32138;50.966;6.968;2023-08-08T05:36:34;13.10;;;4.18;;
46439;SDS011;32138;50.966;6.968;2023-08-08T05:38:05;10.52;;;3.47;;
46439;SDS011;32138;50.966;6.968;2023-08-08T05:39:37;6.18;;;2.72;;
46439;SDS011;32138;50.966;6.968;2023-08-08T05:41:07;10.88;;;3.80;;
46439;SDS011;32138;50.966;6.968;2023-08-08T05:42:38;6.40;;;2.97;;
46439;SDS011;32138;50.966;6.968;2023-08-08T05:44:09;9.70;;;3.35;;
46439;SDS011;32138;50.966;6.968;2023-08-08T05:45:40;7.88;;;3.53;;
46439;SDS011;32138;50.966;6.968;2023-08-08T05:47:11;9.18;;;3.58;;
46439;SDS011;32138;50.966;6.968;2023-08-08T05:48:41;9.07;;;3.75;;
46439;SDS011;32138;50.966;6.968;2023-08-08T05:50:12;7.93;;;3.00;;
46439;SDS011;32138;50.966;6.968;2023-08-08T05:51:43;9.52;;;3.88;;
46439;SDS011;32138;50.966;6.968;2023-08-08T05:53:14;8.45;;;3.88;;
46439;SDS011;32138;50.966;6.968;2023-08-08T05:54:44;8.80;;;3.60;;
46439;SDS011;32138;50.966;6.968;2023-08-08T05:56:15;5.00;;;3.40;;
46439;SDS011;32138;50.966;6.968;2023-08-08T05:57:46;9.65;;;3.33;;
46439;SDS011;32138;50.966;6.968;2023-08-08T05:59:16;9.95;;;3.90;;
46439;SDS011;32138;50.966;6.968;2023-08-08T06:00:47;10.38;;;3.83;;
46439;SDS011;32138;50.966;6.968;2023-08-08T06:02:18;8.35;;;3.15;;
46439;SDS011;32138;50.966;6.968;2023-08-08T06:03:49;10.32;;;3.88;;
46439;SDS011;32138;50.966;6.968;2023-08-08T06:05:21;10.52;;;3.60;;
46439;SDS011;32138;50.966;6.968;2023-08-08T06:06:53;10.05;;;3.85;;
46439;SDS011;32138;50.966;6.968;2023-08-08T06:08:24;6.97;;;3.33;;
46439;SDS011;32138;50.966;6.968;2023-08-08T06:09:55;7.22;;;3.28;;
46439;SDS011;32138;50.966;6.968;2023-08-08T06:11:25;7.70;;;3.90;;
46439;SDS011;32138;50.966;6.968;2023-08-08T06:12:56;11.93;;;4.38;;
46439;SDS011;32138;50.966;6.968;2023-08-08T06:14:27;14.10;;;4.70;;
46439;SDS011;32138;50.966;6.968;2023-08-08T06:15:58;10.05;;;2.70;;
46439;SDS011;32138;50.966;6.968;2023-08-08T06:17:31;15.45;;;4.50;;
46439;SDS011;32138;50.966;6.968;2023-08-08T06:19:01;8.88;;;3.55;;
46439;SDS011;32138;50.966;6.968;2023-08-08T06:20:33;9.40;;;3.40;;
46439;SDS011;32138;50.966;6.968;2023-08-08T06:22:03;10.52;;;3.67;;
46439;SDS011;32138;50.966;6.968;2023-08-08T06:23:34;11.05;;;3.47;;
46439;SDS011;32138;50.966;6.968;2023-08-08T06:25:05;13.38;;;4.50;;
46439;SDS011;32138;50.966;6.968;2023-08-08T06:26:36;10.02;;;3.65;;
46439;SDS011;32138;50.966;6.968;2023-08-08T06:28:07;8.30;;;3.22;;
46439;SDS011;32138;50.966;6.968;2023-08-08T06:29:38;7.57;;;2.95;;
46439;SDS011;32138;50.966;6.968;2023-08-08T06:31:08;11.65;;;3.97;;
46439;SDS011;32138;50.966;6.968;2023-08-08T06:32:39;8.55;;;3.20;;
46439;SDS011;32138;50.966;6.968;2023-08-08T06:34:10;14.18;;;3.38;;
46439;SDS011;32138;50.966;6.968;2023-08-08T06:35:41;11.38;;;3.20;;
46439;SDS011;32138;50.966;6.968;2023-08-08T06:37:12;17.48;;;3.63;;
46439;SDS011;32138;50.966;6.968;2023-08-08T06:38:43;7.18;;;3.47;;
46439;SDS011;32138;50.966;6.968;2023-08-08T06:40:14;7.50;;;3.10;;
46439;SDS011;32138;50.966;6.968;2023-08-08T06:41:45;9.40;;;3.20;;
46439;SDS011;32138;50.966;6.968;2023-08-08T06:43:16;10.63;;;3.28;;
46439;SDS011;32138;50.966;6.968;2023-08-08T06:44:47;10.23;;;3.17;;
46439;SDS011;32138;50.966;6.968;2023-08-08T06:46:18;13.07;;;4.38;;
46439;SDS011;32138;50.966;6.968;2023-08-08T06:47:50;9.10;;;3.15;;
46439;SDS011;32138;50.966;6.968;2023-08-08T06:49:21;14.55;;;3.85;;
46439;SDS011;32138;50.966;6.968;2023-08-08T06:50:51;11.07;;;2.78;;
46439;SDS011;32138;50.966;6.968;2023-08-08T06:52:22;7.88;;;3.03;;
46439;SDS011;32138;50.966;6.968;2023-08-08T06:53:53;9.23;;;3.30;;
46439;SDS011;32138;50.966;6.968;2023-08-08T06:55:24;8.70;;;3.15;;
46439;SDS011;32138;50.966;6.968;2023-08-08T06:56:55;7.32;;;2.65;;
46439;SDS011;32138;50.966;6.968;2023-08-08T06:58:27;9.27;;;3.22;;
46439;SDS011;32138;50.966;6.968;2023-08-08T06:59:57;10.30;;;3.17;;
46439;SDS011;32138;50.966;6.968;2023-08-08T07:01:28;9.27;;;2.78;;
46439;SDS011;32138;50.966;6.968;2023-08-08T07:02:59;9.75;;;3.35;;
46439;SDS011;32138;50.966;6.968;2023-08-08T07:04:30;10.70;;;3.15;;
46439;SDS011;32138;50.966;6.968;2023-08-08T07:06:01;7.85;;;2.90;;
46439;SDS011;32138;50.966;6.968;2023-08-08T07:07:32;10.50;;;3.28;;
46439;SDS011;32138;50.966;6.968;2023-08-08T07:09:05;9.90;;;2.85;;
46439;SDS011;32138;50.966;6.968;2023-08-08T07:10:36;9.07;;;3.50;;
46439;SDS011;32138;50.966;6.968;2023-08-08T07:12:07;12.85;;;3.28;;
46439;SDS011;32138;50.966;6.968;2023-08-08T07:13:38;10.20;;;3.92;;
46439;SDS011;32138;50.966;6.968;2023-08-08T07:15:09;7.53;;;2.72;;
46439;SDS011;32138;50.966;6.968;2023-08-08T07:16:40;9.65;;;3.08;;
46439;SDS011;32138;50.966;6.968;2023-08-08T07:18:11;7.93;;;2.70;;
46439;SDS011;32138;50.966;6.968;2023-08-08T07:19:41;7.57;;;3.38;;
46439;SDS011;32138;50.966;6.968;2023-08-08T07:21:12;15.40;;;3.70;;
46439;SDS011;32138;50.966;6.968;2023-08-08T07:22:43;7.82;;;3.78;;
46439;SDS011;32138;50.966;6.968;2023-08-08T07:24:14;9.18;;;2.60;;
46439;SDS011;32138;50.966;6.968;2023-08-08T07:25:45;10.45;;;3.30;;
46439;SDS011;32138;50.966;6.968;2023-08-08T07:27:16;11.77;;;3.80;;
46439;SDS011;32138;50.966;6.968;2023-08-08T07:28:47;7.53;;;3.22;;
46439;SDS011;32138;50.966;6.968;2023-08-08T07:30:18;9.10;;;3.75;;
46439;SDS011;32138;50.966;6.968;2023-08-08T07:31:50;12.00;;;3.88;;
46439;SDS011;32138;50.966;6.968;2023-08-08T07:33:22;12.63;;;3.35;;
46439;SDS011;32138;50.966;6.968;2023-08-08T07:34:53;8.30;;;3.33;;
46439;SDS011;32138;50.966;6.968;2023-08-08T07:36:24;13.77;;;3.75;;
46439;SDS011;32138;50.966;6.968;2023-08-08T07:37:55;9.90;;;4.38;;
46439;SDS011;32138;50.966;6.968;2023-08-08T07:39:26;14.60;;;3.58;;
46439;SDS011;32138;50.966;6.968;2023-08-08T07:40:57;12.13;;;3.70;;
46439;SDS011;32138;50.966;6.968;2023-08-08T07:42:28;7.63;;;3.13;;
46439;SDS011;32138;50.966;6.968;2023-08-08T07:43:59;13.70;;;4.07;;
46439;SDS011;32138;50.966;6.968;2023-08-08T07:45:30;10.05;;;3.40;;
46439;SDS011;32138;50.966;6.968;2023-08-08T07:47:00;7.05;;;3.30;;
46439;SDS011;32138;50.966;6.968;2023-08-08T07:48:31;11.20;;;3.72;;
46439;SDS011;32138;50.966;6.968;2023-08-08T07:50:02;10.65;;;4.03;;
46439;SDS011;32138;50.966;6.968;2023-08-08T07:51:33;7.43;;;3.25;;
46439;SDS011;32138;50.966;6.968;2023-08-08T07:53:04;13.52;;;3.58;;
46439;SDS011;32138;50.966;6.968;2023-08-08T07:54:35;10.70;;;3.45;;
46439;SDS011;32138;50.966;6.968;2023-08-08T07:56:05;9.02;;;3.33;;
46439;SDS011;32138;50.966;6.968;2023-08-08T07:57:36;10.02;;;3.40;;
46439;SDS011;32138;50.966;6.968;2023-08-08T07:59:07;13.20;;;3.92;;
46439;SDS011;32138;50.966;6.968;2023-08-08T08:00:39;14.00;;;3.95;;
46439;SDS011;32138;50.966;6.968;2023-08-08T08:02:10;13.68;;;3.95;;
46439;SDS011;32138;50.966;6.968;2023-08-08T08:03:41;9.73;;;3.33;;
46439;SDS011;32138;50.966;6.968;2023-08-08T08:05:12;13.82;;;3.83;;
46439;SDS011;32138;50.966;6.968;2023-08-08T08:06:43;9.73;;;3.85;;
46439;SDS011;32138;50.966;6.968;2023-08-08T08:08:14;8.25;;;4.00;;
46439;SDS011;32138;50.966;6.968;2023-08-08T08:09:45;12.73;;;4.13;;
46439;SDS011;32138;50.966;6.968;2023-08-08T08:11:16;8.85;;;4.53;;
46439;SDS011;32138;50.966;6.968;2023-08-08T08:12:47;11.77;;;3.92;;
46439;SDS011;32138;50.966;6.968;2023-08-08T08:14:18;13.15;;;4.28;;
46439;SDS011;32138;50.966;6.968;2023-08-08T08:15:50;11.73;;;3.78;;
46439;SDS011;32138;50.966;6.968;2023-08-08T08:17:21;11.27;;;3.97;;
46439;SDS011;32138;50.966;6.968;2023-08-08T08:18:52;10.55;;;3.67;;
46439;SDS011;32138;50.966;6.968;2023-08-08T08:20:23;11.18;;;4.80;;
46439;SDS011;32138;50.966;6.968;2023-08-08T08:21:55;8.65;;;4.20;;
46439;SDS011;32138;50.966;6.968;2023-08-08T08:23:25;13.60;;;4.30;;
46439;SDS011;32138;50.966;6.968;2023-08-08T08:24:56;11.05;;;4.45;;
46439;SDS011;32138;50.966;6.968;2023-08-08T08:26:27;15.38;;;5.25;;
46439;SDS011;32138;50.966;6.968;2023-08-08T08:27:58;11.68;;;4.22;;
46439;SDS011;32138;50.966;6.968;2023-08-08T08:29:28;8.75;;;4.30;;
46439;SDS011;32138;50.966;6.968;2023-08-08T08:31:07;9.68;;;5.03;;
46439;SDS011;32138;50.966;6.968;2023-08-08T08:32:39;14.88;;;4.90;;
46439;SDS011;32138;50.966;6.968;2023-08-08T08:34:11;10.70;;;3.90;;
46439;SDS011;32138;50.966;6.968;2023-08-08T08:35:42;12.18;;;4.43;;
46439;SDS011;32138;50.966;6.968;2023-08-08T08:37:13;9.93;;;4.15;;
46439;SDS011;32138;50.966;6.968;2023-08-08T08:38:44;6.90;;;4.60;;
46439;SDS011;32138;50.966;6.968;2023-08-08T08:40:16;8.90;;;4.55;;
46439;SDS011;32138;50.966;6.968;2023-08-08T08:41:49;11.13;;;4.13;;
46439;SDS011;32138;50.966;6.968;2023-08-08T08:43:26;9.82;;;4.65;;
46439;SDS011;32138;50.966;6.968;2023-08-08T08:44:58;12.93;;;4.80;;
46439;SDS011;32138;50.966;6.968;2023-08-08T08:46:29;12.77;;;4.43;;
46439;SDS011;32138;50.966;6.968;2023-08-08T08:48:00;12.27;;;5.13;;
46439;SDS011;32138;50.966;6.968;2023-08-08T08:49:33;11.57;;;4.70;;
46439;SDS011;32138;50.966;6.968;2023-08-08T08:51:08;10.55;;;4.30;;
46439;SDS011;32138;50.966;6.968;2023-08-08T08:52:40;12.20;;;4.60;;
46439;SDS011;32138;50.966;6.968;2023-08-08T08:54:12;14.30;;;5.07;;
46439;SDS011;32138;50.966;6.968;2023-08-08T08:55:44;11.20;;;4.55;;
46439;SDS011;32138;50.966;6.968;2023-08-08T08:57:16;11.15;;;3.90;;
46439;SDS011;32138;50.966;6.968;2023-08-08T08:58:47;13.77;;;5.25;;
46439;SDS011;32138;50.966;6.968;2023-08-08T09:00:18;9.23;;;4.03;;
46439;SDS011;32138;50.966;6.968;2023-08-08T09:01:49;46.03;;;7.53;;
46439;SDS011;32138;50.966;6.968;2023-08-08T09:03:21;13.68;;;5.05;;
46439;SDS011;32138;50.966;6.968;2023-08-08T09:04:52;12.60;;;4.47;;
46439;SDS011;32138;50.966;6.968;2023-08-08T09:06:23;10.93;;;4.38;;
46439;SDS011;32138;50.966;6.968;2023-08-08T09:07:55;10.65;;;4.93;;
46439;SDS011;32138;50.966;6.968;2023-08-08T09:09:26;8.50;;;3.60;;